createdAt,value
2018-11-11T00:00:39.888Z,39.00
2018-11-11T00:03:07.700Z,36.27
2018-11-11T00:05:35.554Z,38.37
2018-11-11T00:08:03.356Z,40.03
2018-11-11T00:10:31.225Z,37.77
2018-11-11T00:12:59.056Z,37.87
2018-11-11T00:15:26.921Z,37.20
2018-11-11T00:17:54.752Z,40.83
2018-11-11T00:20:22.579Z,36.80
2018-11-11T00:22:50.403Z,38.20
2018-11-11T00:26:21.743Z,37.43
2018-11-11T00:28:49.713Z,38.50
2018-11-11T00:31:17.484Z,37.83
2018-11-11T00:33:45.344Z,38.50
2018-11-11T00:36:13.180Z,38.50
2018-11-11T00:38:41.012Z,38.93
2018-11-11T00:41:08.823Z,37.40
2018-11-11T00:43:36.639Z,36.03
2018-11-11T00:46:04.544Z,37.80
2018-11-11T00:48:32.339Z,35.90
2018-11-11T00:51:00.184Z,36.33
2018-11-11T00:53:28.001Z,37.27
2018-11-11T00:55:55.839Z,36.10
2018-11-11T00:58:23.687Z,36.60
2018-11-11T01:00:51.494Z,35.57
2018-11-11T01:03:19.316Z,37.77
2018-11-11T01:05:47.123Z,36.47
2018-11-11T01:08:14.956Z,35.97
2018-11-11T01:10:42.781Z,35.47
2018-11-11T01:13:10.583Z,35.10
2018-11-11T01:15:38.412Z,37.10
2018-11-11T01:18:06.248Z,36.27
2018-11-11T01:20:34.063Z,36.70
2018-11-11T01:23:01.877Z,37.00
2018-11-11T01:25:29.695Z,36.03
2018-11-11T01:27:57.517Z,36.87
2018-11-11T01:30:25.336Z,36.47
2018-11-11T01:32:53.135Z,35.73
2018-11-11T01:35:20.973Z,37.77
2018-11-11T01:37:48.780Z,35.53
2018-11-11T01:40:16.603Z,36.70
2018-11-11T01:42:44.431Z,36.90
2018-11-11T01:45:14.365Z,37.00
2018-11-11T01:47:42.405Z,35.50
2018-11-11T01:50:11.304Z,36.20
2018-11-11T01:52:39.279Z,36.20
2018-11-11T01:55:07.297Z,35.87
2018-11-11T01:57:35.111Z,36.93
2018-11-11T02:00:02.971Z,37.40
2018-11-11T02:02:30.781Z,35.20
2018-11-11T02:04:58.633Z,34.43
2018-11-11T02:07:26.455Z,35.43
2018-11-11T02:09:54.305Z,36.50
2018-11-11T02:12:22.108Z,35.90
2018-11-11T02:14:49.937Z,35.20
2018-11-11T02:17:17.744Z,34.73
2018-11-11T02:19:45.605Z,37.23
2018-11-11T02:22:13.508Z,34.50
2018-11-11T02:24:41.336Z,35.10
2018-11-11T02:27:09.148Z,35.77
2018-11-11T02:29:36.972Z,37.30
2018-11-11T02:32:05.125Z,34.60
2018-11-11T02:34:32.960Z,34.30
2018-11-11T02:37:00.764Z,35.07
2018-11-11T02:39:28.569Z,34.80
2018-11-11T02:41:56.400Z,35.40
2018-11-11T02:44:24.240Z,34.67
2018-11-11T02:46:52.124Z,34.63
2018-11-11T02:49:19.961Z,35.60
2018-11-11T02:51:47.822Z,34.43
2018-11-11T02:54:15.632Z,34.93
2018-11-11T02:56:43.456Z,35.77
2018-11-11T02:59:11.300Z,35.57
2018-11-11T03:01:39.132Z,35.00
2018-11-11T03:04:06.931Z,32.70
2018-11-11T03:06:34.812Z,34.50
2018-11-11T03:09:02.623Z,34.97
2018-11-11T03:11:30.444Z,34.07
2018-11-11T03:13:58.276Z,33.67
2018-11-11T03:16:26.136Z,32.93
2018-11-11T03:18:53.958Z,33.77
2018-11-11T03:21:21.759Z,33.60
2018-11-11T03:23:49.588Z,34.27
2018-11-11T03:26:17.399Z,34.40
2018-11-11T03:28:45.259Z,32.53
2018-11-11T03:31:13.067Z,33.73
2018-11-11T03:33:40.891Z,35.00
2018-11-11T03:36:08.698Z,33.23
2018-11-11T03:38:36.528Z,35.13
2018-11-11T03:41:04.356Z,32.33
2018-11-11T03:43:32.164Z,32.03
2018-11-11T03:46:00.008Z,32.10
2018-11-11T03:48:27.812Z,31.90
2018-11-11T03:50:55.671Z,34.73
2018-11-11T03:53:23.473Z,31.83
2018-11-11T03:55:51.300Z,33.00
2018-11-11T03:58:19.136Z,31.93
2018-11-11T04:00:46.949Z,32.80
2018-11-11T04:03:14.780Z,31.37
2018-11-11T04:05:42.608Z,33.63
2018-11-11T04:08:10.436Z,32.40
2018-11-11T04:10:38.245Z,32.63
2018-11-11T04:13:06.075Z,31.93
2018-11-11T04:15:33.909Z,32.20
2018-11-11T04:18:01.713Z,31.40
2018-11-11T04:20:29.542Z,31.43
2018-11-11T04:22:57.373Z,32.33
2018-11-11T04:25:25.233Z,32.90
2018-11-11T04:27:53.068Z,32.63
2018-11-11T04:30:20.871Z,34.20
2018-11-11T04:32:48.744Z,31.83
2018-11-11T04:35:16.540Z,31.40
2018-11-11T04:37:44.368Z,33.00
2018-11-11T04:40:12.980Z,30.23
2018-11-11T04:42:40.790Z,31.80
2018-11-11T04:45:09.444Z,30.27
2018-11-11T04:47:37.285Z,31.33
2018-11-11T04:50:05.948Z,31.30
2018-11-11T04:52:33.759Z,31.43
2018-11-11T04:55:01.604Z,31.90
2018-11-11T04:57:29.416Z,31.53
2018-11-11T04:59:57.260Z,31.60
2018-11-11T05:02:25.064Z,32.20
2018-11-11T05:04:52.897Z,31.80
2018-11-11T05:07:20.704Z,33.60
2018-11-11T05:09:48.527Z,29.57
2018-11-11T05:12:16.336Z,32.03
2018-11-11T05:14:44.171Z,31.90
2018-11-11T05:17:11.993Z,31.43
2018-11-11T05:19:39.815Z,31.17
2018-11-11T05:22:07.772Z,31.90
2018-11-11T05:24:35.573Z,31.50
2018-11-11T05:27:03.403Z,31.33
2018-11-11T05:29:31.237Z,32.10
2018-11-11T05:31:59.058Z,31.47
2018-11-11T05:34:26.896Z,32.27
2018-11-11T05:36:54.709Z,31.10
2018-11-11T05:39:22.511Z,33.50
2018-11-11T05:41:50.343Z,33.00
2018-11-11T05:44:18.160Z,34.40
2018-11-11T05:46:45.987Z,33.20
2018-11-11T05:49:13.812Z,31.13
2018-11-11T05:51:41.677Z,31.17
2018-11-11T05:54:09.496Z,32.97
2018-11-11T05:56:37.306Z,31.60
2018-11-11T05:59:05.233Z,31.77
2018-11-11T06:01:33.100Z,31.93
2018-11-11T06:04:01.796Z,30.37
2018-11-11T06:06:29.599Z,30.07
2018-11-11T06:08:57.421Z,31.70
2018-11-11T06:11:25.233Z,31.00
2018-11-11T06:13:53.113Z,31.80
2018-11-11T06:16:20.919Z,30.97
2018-11-11T06:18:48.730Z,31.53
2018-11-11T06:21:16.568Z,32.57
2018-11-11T06:23:44.388Z,31.00
2018-11-11T06:26:12.244Z,30.30
2018-11-11T06:28:40.052Z,32.03
2018-11-11T06:31:07.944Z,32.90
2018-11-11T06:33:35.785Z,32.10
2018-11-11T06:36:03.867Z,31.37
2018-11-11T06:38:31.948Z,31.40
2018-11-11T06:40:59.792Z,30.30
2018-11-11T06:43:27.616Z,32.00
2018-11-11T06:45:55.432Z,31.60
2018-11-11T06:48:23.276Z,30.10
2018-11-11T06:50:51.088Z,31.30
2018-11-11T06:53:18.937Z,30.57
2018-11-11T06:55:46.739Z,29.20
2018-11-11T06:58:21.572Z,30.30
2018-11-11T07:00:49.403Z,30.10
2018-11-11T07:03:22.946Z,32.27
2018-11-11T07:05:50.770Z,29.83
2018-11-11T07:08:18.583Z,29.37
2018-11-11T07:10:46.407Z,30.00
2018-11-11T07:13:14.244Z,30.20
2018-11-11T07:15:42.064Z,30.53
2018-11-11T07:18:09.880Z,30.27
2018-11-11T07:20:37.704Z,31.40
2018-11-11T07:23:05.983Z,31.83
2018-11-11T07:25:33.788Z,31.13
2018-11-11T07:28:01.641Z,30.10
2018-11-11T07:30:29.455Z,30.10
2018-11-11T07:32:57.272Z,29.37
2018-11-11T07:35:25.109Z,29.17
2018-11-11T07:37:52.960Z,29.63
2018-11-11T07:40:20.768Z,30.00
2018-11-11T07:42:48.580Z,29.97
2018-11-11T07:45:16.412Z,31.53
2018-11-11T07:47:44.271Z,30.40
2018-11-11T07:50:12.195Z,30.67
2018-11-11T07:52:40.008Z,31.73
2018-11-11T07:55:08.808Z,31.13
2018-11-11T07:57:36.751Z,32.87
2018-11-11T08:00:06.645Z,30.27
2018-11-11T08:02:34.492Z,29.67
2018-11-11T08:05:02.312Z,29.30
2018-11-11T08:07:30.135Z,29.80
2018-11-11T08:09:57.952Z,31.30
2018-11-11T08:12:25.792Z,31.40
2018-11-11T08:14:53.620Z,33.80
2018-11-11T08:17:21.456Z,31.90
2018-11-11T08:19:49.287Z,33.43
2018-11-11T08:22:17.133Z,33.43
2018-11-11T08:24:44.987Z,32.20
2018-11-11T08:27:12.836Z,33.20
2018-11-11T08:29:40.640Z,33.60
2018-11-11T08:32:08.471Z,32.87
2018-11-11T08:34:36.321Z,31.90
2018-11-11T08:37:04.119Z,31.73
2018-11-11T08:39:31.958Z,29.73
2018-11-11T08:41:59.787Z,31.20
2018-11-11T08:44:27.629Z,32.90
2018-11-11T08:46:55.444Z,31.30
2018-11-11T08:49:23.269Z,31.33
2018-11-11T08:51:51.097Z,31.37
2018-11-11T08:54:18.932Z,30.93
2018-11-11T08:56:46.744Z,31.00
2018-11-11T08:59:14.552Z,29.67
2018-11-11T09:01:42.396Z,29.07
2018-11-11T09:04:10.207Z,29.93
2018-11-11T09:06:38.142Z,29.80
2018-11-11T09:09:06.585Z,30.50
2018-11-11T09:11:34.511Z,30.67
2018-11-11T09:14:02.292Z,30.53
2018-11-11T09:16:30.116Z,30.00
2018-11-11T09:18:57.928Z,29.73
2018-11-11T09:21:25.756Z,27.90
2018-11-11T09:23:53.667Z,30.27
2018-11-11T09:26:21.451Z,29.80
2018-11-11T09:28:49.280Z,31.17
2018-11-11T09:31:17.091Z,29.83
2018-11-11T09:33:44.921Z,29.90
2018-11-11T09:36:12.745Z,29.67
2018-11-11T09:38:40.564Z,29.50
2018-11-11T09:41:09.105Z,30.00
2018-11-11T09:43:36.979Z,31.37
2018-11-11T09:46:04.824Z,31.83
2018-11-11T09:48:32.691Z,29.40
2018-11-11T09:51:00.532Z,28.80
2018-11-11T09:53:28.361Z,28.57
2018-11-11T09:55:56.183Z,29.07
2018-11-11T09:58:24.045Z,28.67
2018-11-11T10:00:51.839Z,29.67
2018-11-11T10:03:25.280Z,31.00
2018-11-11T10:07:01.014Z,30.50
2018-11-11T10:09:38.787Z,30.47
2018-11-11T10:12:20.056Z,30.00
2018-11-11T10:14:52.764Z,29.77
2018-11-11T10:17:24.706Z,29.17
2018-11-11T10:19:57.927Z,28.70
2018-11-11T10:22:46.836Z,30.20
2018-11-11T10:26:17.714Z,29.53
2018-11-11T10:28:52.951Z,27.80
2018-11-11T10:31:56.859Z,29.67
2018-11-11T10:34:29.767Z,30.60
2018-11-11T10:37:01.737Z,29.50
2018-11-11T10:39:40.632Z,29.80
2018-11-11T10:42:15.182Z,28.90
2018-11-11T10:44:50.700Z,29.73
2018-11-11T10:47:26.880Z,31.07
2018-11-11T10:49:57.094Z,31.20
2018-11-11T10:52:24.963Z,29.37
2018-11-11T10:54:52.800Z,30.50
2018-11-11T10:57:20.596Z,28.87
2018-11-11T10:59:48.436Z,29.07
2018-11-11T11:02:16.322Z,29.00
2018-11-11T11:04:49.520Z,28.67
2018-11-11T11:07:17.316Z,30.30
2018-11-11T11:09:45.123Z,30.60
2018-11-11T11:12:12.962Z,30.20
2018-11-11T11:14:40.808Z,29.60
2018-11-11T11:17:08.637Z,28.20
2018-11-11T11:19:36.445Z,29.50
2018-11-11T11:22:04.540Z,29.07
2018-11-11T11:24:32.344Z,28.90
2018-11-11T11:27:00.197Z,28.40
2018-11-11T11:29:28.004Z,28.50
2018-11-11T11:31:55.928Z,27.50
2018-11-11T11:34:23.700Z,30.30
2018-11-11T11:36:52.518Z,29.40
2018-11-11T11:39:20.348Z,30.87
2018-11-11T11:41:48.168Z,30.70
2018-11-11T11:44:16.075Z,29.27
2018-11-11T11:46:43.815Z,28.40
2018-11-11T11:49:11.649Z,27.23
2018-11-11T11:51:39.538Z,29.87
2018-11-11T11:54:07.315Z,27.60
2018-11-11T11:56:35.144Z,27.23
2018-11-11T11:59:02.959Z,29.23
2018-11-11T12:01:30.803Z,28.27
2018-11-11T12:03:58.627Z,26.70
2018-11-11T12:06:26.532Z,27.37
2018-11-11T12:08:54.363Z,29.07
2018-11-11T12:11:22.168Z,28.20
2018-11-11T12:13:49.987Z,28.60
2018-11-11T12:16:17.802Z,28.33
2018-11-11T12:18:45.599Z,28.63
2018-11-11T12:21:13.427Z,28.93
2018-11-11T12:23:41.257Z,29.80
2018-11-11T12:26:09.121Z,29.40
2018-11-11T12:28:36.936Z,27.43
2018-11-11T12:31:04.804Z,29.80
2018-11-11T12:33:32.639Z,28.67
2018-11-11T12:36:00.452Z,27.33
2018-11-11T12:38:28.288Z,28.97
2018-11-11T12:40:56.100Z,28.17
2018-11-11T12:43:23.921Z,26.13
2018-11-11T12:45:51.761Z,26.33
2018-11-11T12:48:19.591Z,28.00
2018-11-11T12:50:47.424Z,26.83
2018-11-11T12:53:15.234Z,25.90
2018-11-11T12:55:43.076Z,28.90
2018-11-11T12:58:10.875Z,26.50
2018-11-11T13:00:38.696Z,27.63
2018-11-11T13:03:06.500Z,27.40
2018-11-11T13:05:34.323Z,27.27
2018-11-11T13:08:02.203Z,27.73
2018-11-11T13:10:30.012Z,27.07
2018-11-11T13:12:57.839Z,24.40
2018-11-11T13:15:25.688Z,25.60
2018-11-11T13:17:53.513Z,25.03
2018-11-11T13:20:21.340Z,23.97
2018-11-11T13:22:49.206Z,24.60
2018-11-11T13:25:17.007Z,25.10
2018-11-11T13:27:44.832Z,25.87
2018-11-11T13:30:13.853Z,25.33
2018-11-11T13:32:41.694Z,25.67
2018-11-11T13:35:10.723Z,25.17
2018-11-11T13:37:38.599Z,24.13
2018-11-11T13:40:09.115Z,23.63
2018-11-11T13:42:36.932Z,24.53
2018-11-11T13:45:05.701Z,23.27
2018-11-11T13:47:33.520Z,22.73
2018-11-11T13:50:01.364Z,22.53
2018-11-11T13:52:29.240Z,23.10
2018-11-11T13:54:57.056Z,23.90
2018-11-11T13:57:24.872Z,23.07
2018-11-11T13:59:52.708Z,24.23
2018-11-11T14:02:20.521Z,24.03
2018-11-11T14:04:48.360Z,22.43
2018-11-11T14:07:16.184Z,22.47
2018-11-11T14:09:44.052Z,21.50
2018-11-11T14:12:11.923Z,20.50
2018-11-11T14:14:39.752Z,22.57
2018-11-11T14:17:07.601Z,21.97
2018-11-11T14:19:35.572Z,21.43
2018-11-11T14:22:03.300Z,21.90
2018-11-11T14:24:31.122Z,21.87
2018-11-11T14:26:59.028Z,21.60
2018-11-11T14:29:26.809Z,21.80
2018-11-11T14:31:54.656Z,21.73
2018-11-11T14:34:22.539Z,20.60
2018-11-11T14:36:50.352Z,21.07
2018-11-11T14:39:18.193Z,21.07
2018-11-11T14:41:46.009Z,22.53
2018-11-11T14:44:13.849Z,20.53
2018-11-11T14:46:41.685Z,22.93
2018-11-11T14:49:10.023Z,22.43
2018-11-11T14:51:37.852Z,22.73
2018-11-11T14:54:05.733Z,22.07
2018-11-11T14:56:33.596Z,23.00
2018-11-11T14:59:01.474Z,23.60
2018-11-11T15:01:29.312Z,23.93
2018-11-11T15:03:57.115Z,25.20
2018-11-11T15:06:24.957Z,24.40
2018-11-11T15:08:52.760Z,24.60
2018-11-11T15:11:20.600Z,26.27
2018-11-11T15:13:48.436Z,23.33
2018-11-11T15:16:16.281Z,22.93
2018-11-11T15:18:44.112Z,23.00
2018-11-11T15:21:11.940Z,22.53
2018-11-11T15:23:39.760Z,20.20
2018-11-11T15:26:07.603Z,21.20
2018-11-11T15:28:35.416Z,21.63
2018-11-11T15:31:03.474Z,20.67
2018-11-11T15:33:31.164Z,20.30
2018-11-11T15:35:59.071Z,21.10
2018-11-11T15:38:26.821Z,19.53
2018-11-11T15:40:54.664Z,18.07
2018-11-11T15:43:22.500Z,18.80
2018-11-11T15:45:50.324Z,18.57
2018-11-11T15:48:18.155Z,17.30
2018-11-11T15:50:46.012Z,16.23
2018-11-11T15:53:13.864Z,16.50
2018-11-11T15:55:41.668Z,16.70
2018-11-11T15:58:09.564Z,17.43
2018-11-11T16:00:39.092Z,18.70
2018-11-11T16:03:06.944Z,18.73
2018-11-11T16:05:34.784Z,19.20
2018-11-11T16:08:02.987Z,17.90
2018-11-11T16:10:31.915Z,18.50
2018-11-11T16:12:59.817Z,17.17
2018-11-11T16:15:28.921Z,17.07
2018-11-11T16:17:58.320Z,17.97
2018-11-11T16:20:27.228Z,16.50
2018-11-11T16:22:56.221Z,17.37
2018-11-11T16:25:24.135Z,18.30
2018-11-11T16:27:51.927Z,16.80
2018-11-11T16:30:21.844Z,17.63
2018-11-11T16:32:50.347Z,16.33
2018-11-11T16:35:19.426Z,17.30
2018-11-11T16:37:47.264Z,15.33
2018-11-11T16:40:18.740Z,17.20
2018-11-11T16:42:47.207Z,17.40
2018-11-11T16:45:16.624Z,16.77
2018-11-11T16:47:44.491Z,16.40
2018-11-11T16:50:13.186Z,17.27
2018-11-11T16:52:42.273Z,16.27
2018-11-11T16:55:11.768Z,17.83
2018-11-11T16:57:39.769Z,17.43
2018-11-11T17:00:08.639Z,18.70
2018-11-11T17:02:36.732Z,16.93
2018-11-11T17:05:05.032Z,17.40
2018-11-11T17:07:32.876Z,18.47
2018-11-11T17:10:00.692Z,19.27
2018-11-11T17:12:28.536Z,19.00
2018-11-11T17:14:56.337Z,19.87
2018-11-11T17:17:24.236Z,17.70
2018-11-11T17:19:52.091Z,18.77
2018-11-11T17:22:19.981Z,19.50
2018-11-11T17:24:47.776Z,17.27
2018-11-11T17:27:15.662Z,17.83
2018-11-11T17:29:43.511Z,16.97
2018-11-11T17:32:11.340Z,16.97
2018-11-11T17:34:39.124Z,18.43
2018-11-11T17:37:06.953Z,18.30
2018-11-11T17:39:34.784Z,18.93
2018-11-11T17:42:02.606Z,18.80
2018-11-11T17:44:30.485Z,17.47
2018-11-11T17:46:58.315Z,18.00
2018-11-11T17:49:26.153Z,17.40
2018-11-11T17:51:53.996Z,17.60
2018-11-11T17:54:21.814Z,17.00
2018-11-11T17:56:49.641Z,16.80
2018-11-11T17:59:17.508Z,17.67
2018-11-11T18:01:45.329Z,17.80
2018-11-11T18:04:13.387Z,17.70
2018-11-11T18:06:41.229Z,17.60
2018-11-11T18:09:09.821Z,20.80
2018-11-11T18:11:38.134Z,21.23
2018-11-11T18:14:06.076Z,21.30
2018-11-11T18:16:33.889Z,20.63
2018-11-11T18:19:01.742Z,18.67
2018-11-11T18:21:29.583Z,17.00
2018-11-11T18:23:57.417Z,18.20
2018-11-11T18:26:25.312Z,16.03
2018-11-11T18:28:53.104Z,16.60
2018-11-11T18:31:20.944Z,15.93
2018-11-11T18:33:48.816Z,15.93
2018-11-11T18:36:16.614Z,15.90
2018-11-11T18:38:44.462Z,20.03
2018-11-11T18:41:12.285Z,18.10
2018-11-11T18:43:40.132Z,16.30
2018-11-11T18:46:07.956Z,17.00
2018-11-11T18:48:35.776Z,16.57
2018-11-11T18:51:03.589Z,16.50
2018-11-11T18:53:31.430Z,16.80
2018-11-11T18:55:59.322Z,15.63
2018-11-11T18:58:27.098Z,15.50
2018-11-11T19:00:54.948Z,16.07
2018-11-11T19:03:22.784Z,15.93
2018-11-11T19:05:50.632Z,15.53
2018-11-11T19:08:18.447Z,15.90
2018-11-11T19:10:46.420Z,15.30
2018-11-11T19:13:14.176Z,14.07
2018-11-11T19:15:41.993Z,15.93
2018-11-11T19:18:09.804Z,14.93
2018-11-11T19:20:37.632Z,14.87
2018-11-11T19:23:05.500Z,14.03
2018-11-11T19:25:33.334Z,14.10
2018-11-11T19:28:01.946Z,13.97
2018-11-11T19:30:30.485Z,14.20
2018-11-11T19:32:58.240Z,15.63
2018-11-11T19:35:26.060Z,17.40
2018-11-11T19:37:54.930Z,14.33
2018-11-11T19:40:24.092Z,14.60
2018-11-11T19:42:52.756Z,14.17
2018-11-11T19:45:21.974Z,13.70
2018-11-11T19:47:49.824Z,14.30
2018-11-11T19:50:19.081Z,14.80
2018-11-11T19:52:48.131Z,14.30
2018-11-11T19:55:16.820Z,15.30
2018-11-11T19:57:44.702Z,15.93
2018-11-11T20:00:13.980Z,14.77
2018-11-11T20:02:43.204Z,15.47
2018-11-11T20:05:12.175Z,15.00
2018-11-11T20:07:40.260Z,15.27
2018-11-11T20:10:08.842Z,15.20
2018-11-11T20:12:36.745Z,13.97
2018-11-11T20:15:05.524Z,14.47
2018-11-11T20:17:33.400Z,15.73
2018-11-11T20:20:01.222Z,15.30
2018-11-11T20:22:29.035Z,15.40
2018-11-11T20:24:56.872Z,13.97
2018-11-11T20:27:24.700Z,14.20
2018-11-11T20:29:52.550Z,14.40
2018-11-11T20:32:20.363Z,14.53
2018-11-11T20:34:48.224Z,15.63
2018-11-11T20:37:16.219Z,14.17
2018-11-11T20:39:43.912Z,14.80
2018-11-11T20:42:11.788Z,15.63
2018-11-11T20:44:39.624Z,15.67
2018-11-11T20:47:07.501Z,14.60
2018-11-11T20:49:35.381Z,15.20
2018-11-11T20:52:03.176Z,15.50
2018-11-11T20:54:31.043Z,15.10
2018-11-11T20:56:58.913Z,14.85
2018-11-11T20:59:26.716Z,16.05
2018-11-11T21:01:54.556Z,17.10
2018-11-11T21:04:22.404Z,16.70
2018-11-11T21:06:50.221Z,16.20
2018-11-11T21:09:18.107Z,17.03
2018-11-11T21:11:45.904Z,16.67
2018-11-11T21:14:13.785Z,15.20
2018-11-11T21:16:41.620Z,16.37
2018-11-11T21:19:09.525Z,15.00
2018-11-11T21:21:37.373Z,15.63
2018-11-11T21:24:05.241Z,15.40
2018-11-11T21:26:33.072Z,14.80
2018-11-11T21:29:00.928Z,15.83
2018-11-11T21:31:28.793Z,16.43
2018-11-11T21:33:56.675Z,16.57
2018-11-11T21:36:24.493Z,16.40
2018-11-11T21:38:52.354Z,16.40
2018-11-11T21:41:20.185Z,16.27
2018-11-11T21:43:48.024Z,16.35
2018-11-11T21:48:42.874Z,17.40
2018-11-11T21:51:10.737Z,17.37
2018-11-11T21:53:39.756Z,16.83
2018-11-11T21:56:07.882Z,17.07
2018-11-11T21:58:35.685Z,15.43
2018-11-11T22:01:03.536Z,15.30
2018-11-11T22:03:32.437Z,14.85
2018-11-11T22:06:00.294Z,15.87
2018-11-11T22:08:28.140Z,15.23
2018-11-11T22:10:56.001Z,15.70
2018-11-11T22:13:24.191Z,15.73
2018-11-11T22:15:52.345Z,15.60
2018-11-11T22:18:20.140Z,15.50
2018-11-11T22:20:48.305Z,15.67
2018-11-11T22:23:16.130Z,16.55
2018-11-11T22:25:43.997Z,16.13
2018-11-11T22:28:11.889Z,16.30
2018-11-11T22:30:39.689Z,16.57
2018-11-11T22:33:07.548Z,15.50
2018-11-11T22:35:35.380Z,15.30
2018-11-11T22:38:03.224Z,15.00
2018-11-11T22:40:31.072Z,15.70
2018-11-11T22:42:58.946Z,15.90
2018-11-11T22:45:26.847Z,15.50
2018-11-11T22:47:54.677Z,15.03
2018-11-11T22:50:22.520Z,15.83
2018-11-11T22:52:50.440Z,16.43
2018-11-11T22:55:18.329Z,16.63
2018-11-11T22:57:46.152Z,15.97
2018-11-11T23:00:19.897Z,14.53
2018-11-11T23:02:47.763Z,15.57
2018-11-11T23:05:16.795Z,16.83
2018-11-11T23:07:44.627Z,15.97
2018-11-11T23:10:12.465Z,17.45
2018-11-11T23:12:40.396Z,16.15
2018-11-11T23:15:09.107Z,17.03
2018-11-11T23:17:36.975Z,17.10
2018-11-11T23:20:05.361Z,15.80
2018-11-11T23:22:33.224Z,15.73
2018-11-11T23:25:01.116Z,16.60
2018-11-11T23:27:28.959Z,17.95
2018-11-11T23:29:56.853Z,16.60
2018-11-11T23:32:24.723Z,15.30
2018-11-11T23:34:52.551Z,16.30
2018-11-11T23:37:20.454Z,16.43
2018-11-11T23:39:48.300Z,16.63
2018-11-11T23:42:16.168Z,16.17
2018-11-11T23:44:44.057Z,17.50
2018-11-11T23:47:11.896Z,17.43
2018-11-11T23:49:39.792Z,15.70
2018-11-11T23:52:07.883Z,16.67
2018-11-11T23:54:36.079Z,16.37
2018-11-11T23:57:04.022Z,19.27
2018-11-11T23:59:32.890Z,16.77
